Time;durP1;ratioP1;P1;durP2;ratioP2;P2;SDS_P1;SDS_P2;PMS_P1;PMS_P2;Temp;Humidity;BMP_temperature;BMP_pressure;BME280_temperature;BME280_humidity;BME280_pressure;Samples;Min_cycle;Max_cycle;Signal;HPM_P1;HPM_P2
2022/05/23 00:00:35;;;;;;;5.65;3.25;;;14.10;99.90;;;;;;5097076;28;20360;-68
2022/05/23 00:03:02;;;;;;;5.88;3.78;;;14.10;99.90;;;;;;5097870;28;20555;-68
2022/05/23 00:05:29;;;;;;;8.55;3.63;;;14.00;99.90;;;;;;5079138;28;20040;-68
2022/05/23 00:07:56;;;;;;;7.03;3.42;;;14.00;99.90;;;;;;5095707;28;20047;-68
2022/05/23 00:10:23;;;;;;;10.05;3.92;;;14.00;99.90;;;;;;5063016;28;20071;-68
2022/05/23 00:12:50;;;;;;;6.50;3.60;;;14.00;99.90;;;;;;5097698;28;20414;-68
2022/05/23 00:15:17;;;;;;;7.22;3.17;;;14.10;99.90;;;;;;5097093;28;20043;-68
2022/05/23 00:17:44;;;;;;;5.03;3.10;;;14.10;99.90;;;;;;5096791;28;20051;-68
2022/05/23 00:20:11;;;;;;;6.80;2.92;;;14.20;99.90;;;;;;5097384;28;20379;-65
2022/05/23 00:22:39;;;;;;;6.07;3.03;;;14.20;99.90;;;;;;5097700;28;20048;-68
2022/05/23 00:25:07;;;;;;;11.43;4.40;;;14.30;99.90;;;;;;5096990;28;20054;-68
2022/05/23 00:27:37;;;;;;;7.45;3.90;;;14.30;99.90;;;;;;5096869;28;20055;-68
2022/05/23 00:30:09;;;;;;;8.65;3.92;;;14.40;99.90;;;;;;5097213;28;20421;-68
2022/05/23 00:35:22;;;;;;;7.47;3.13;;;14.50;99.90;;;;;;5096476;28;20135;-65
2022/05/23 00:37:51;;;;;;;5.05;3.03;;;14.60;99.90;;;;;;5096713;28;20467;-68
2022/05/23 00:40:34;;;;;;;6.97;3.25;;;14.60;99.90;;;;;;5078568;28;20055;-68
2022/05/23 00:43:15;;;;;;;4.53;2.63;;;14.60;99.90;;;;;;5096586;28;20108;-68
2022/05/23 00:45:48;;;;;;;4.18;3.00;;;14.70;99.90;;;;;;5081129;28;20040;-65
2022/05/23 00:48:17;;;;;;;5.43;3.08;;;14.70;99.90;;;;;;5094976;28;20036;-68
2022/05/23 00:50:47;;;;;;;10.05;3.08;;;14.70;99.90;;;;;;5079023;28;20051;-68
2022/05/23 00:53:14;;;;;;;8.30;3.78;;;14.70;99.90;;;;;;5078295;28;20047;-68
2022/05/23 00:55:47;;;;;;;4.72;2.90;;;14.70;99.90;;;;;;5094868;28;20048;-66
2022/05/23 00:58:24;;;;;;;5.75;3.30;;;14.60;99.90;;;;;;5078609;28;20048;-68
2022/05/23 01:00:51;;;;;;;6.35;3.42;;;14.60;99.90;;;;;;5096911;28;20047;-68
2022/05/23 01:03:18;;;;;;;6.85;3.15;;;14.60;99.90;;;;;;5078359;28;20054;-68
2022/05/23 01:05:46;;;;;;;6.90;3.50;;;14.50;99.90;;;;;;5078439;28;20051;-68
2022/05/23 01:08:16;;;;;;;7.00;3.72;;;14.40;99.90;;;;;;5061180;28;20043;-68
2022/05/23 01:10:43;;;;;;;5.35;3.47;;;14.40;99.90;;;;;;5096194;28;20047;-68
2022/05/23 01:13:10;;;;;;;5.20;3.13;;;14.40;99.90;;;;;;5095363;28;20040;-68
2022/05/23 01:15:37;;;;;;;7.60;3.15;;;14.40;99.90;;;;;;5095791;28;20044;-68
2022/05/23 01:18:04;;;;;;;7.05;3.10;;;14.30;99.90;;;;;;5094722;28;20044;-68
2022/05/23 01:20:31;;;;;;;4.68;3.08;;;14.30;99.90;;;;;;5094442;28;20047;-68
2022/05/23 01:23:26;;;;;;;6.15;4.05;;;14.30;99.90;;;;;;5094309;28;20040;-68
2022/05/23 01:25:53;;;;;;;4.93;2.70;;;14.30;99.90;;;;;;5096277;28;20039;-68
2022/05/23 01:28:20;;;;;;;7.60;3.22;;;14.30;99.90;;;;;;5095376;28;20048;-68
2022/05/23 01:30:47;;;;;;;7.57;3.97;;;14.20;99.90;;;;;;5095243;28;20040;-68
2022/05/23 01:33:14;;;;;;;5.25;2.83;;;14.20;99.90;;;;;;5078310;28;20040;-68
2022/05/23 01:35:41;;;;;;;6.88;3.20;;;14.20;99.90;;;;;;5094702;28;20391;-68
2022/05/23 01:38:09;;;;;;;7.47;3.80;;;14.20;99.90;;;;;;5077710;28;20044;-68
2022/05/23 01:40:36;;;;;;;7.43;3.17;;;14.10;99.90;;;;;;5096115;28;20044;-68
2022/05/23 01:43:03;;;;;;;5.32;2.80;;;14.20;99.90;;;;;;5077287;28;20040;-68
2022/05/23 01:45:32;;;;;;;7.68;3.05;;;14.20;99.90;;;;;;5094353;28;20043;-68
2022/05/23 01:48:00;;;;;;;6.18;3.42;;;14.20;99.90;;;;;;5095878;28;20040;-68
2022/05/23 01:50:27;;;;;;;8.90;3.55;;;14.10;99.90;;;;;;5095346;28;20051;-68
2022/05/23 01:52:54;;;;;;;8.63;3.22;;;14.10;99.90;;;;;;5095359;28;20052;-68
2022/05/23 01:55:21;;;;;;;6.15;3.50;;;14.10;99.90;;;;;;5094058;28;20054;-68
2022/05/23 01:57:48;;;;;;;6.72;3.25;;;14.10;99.90;;;;;;5077340;28;20074;-68
2022/05/23 02:03:01;;;;;;;8.43;4.25;;;14.00;99.90;;;;;;5094752;28;20055;-68
2022/05/23 02:05:28;;;;;;;7.43;3.30;;;14.00;99.90;;;;;;5095781;28;20093;-68
2022/05/23 02:07:56;;;;;;;7.85;3.17;;;14.10;99.90;;;;;;5095681;28;20364;-68
2022/05/23 02:10:23;;;;;;;8.13;3.72;;;14.10;99.90;;;;;;5095770;28;20405;-68
2022/05/23 02:12:50;;;;;;;8.15;3.78;;;14.10;99.90;;;;;;5076984;28;20059;-68
2022/05/23 02:15:17;;;;;;;7.60;3.83;;;14.10;99.90;;;;;;5095412;28;20040;-68
2022/05/23 02:17:44;;;;;;;6.28;3.80;;;14.10;99.90;;;;;;5094549;28;20044;-67
2022/05/23 02:20:12;;;;;;;8.00;3.65;;;14.10;99.90;;;;;;5093467;28;20047;-68
2022/05/23 02:22:39;;;;;;;7.38;4.00;;;14.10;99.90;;;;;;5093337;28;20040;-68
2022/05/23 02:25:06;;;;;;;14.05;3.60;;;14.10;99.90;;;;;;5093496;28;20040;-68
2022/05/23 02:27:34;;;;;;;7.18;4.03;;;14.10;99.90;;;;;;5093099;28;20439;-68
2022/05/23 02:30:01;;;;;;;10.50;4.18;;;14.10;99.90;;;;;;5093962;28;20147;-68
2022/05/23 02:32:28;;;;;;;7.63;3.50;;;14.10;99.90;;;;;;5092999;28;20044;-68
2022/05/23 02:34:55;;;;;;;7.72;4.35;;;14.10;99.90;;;;;;5094107;28;20043;-68
2022/05/23 02:37:22;;;;;;;7.88;3.72;;;14.00;99.90;;;;;;5092991;28;20134;-68
2022/05/23 02:39:49;;;;;;;8.48;3.38;;;14.00;99.90;;;;;;5093758;28;20051;-68
2022/05/23 02:42:16;;;;;;;7.45;3.40;;;14.00;99.90;;;;;;5094547;28;20044;-66
2022/05/23 02:44:44;;;;;;;5.47;3.30;;;13.90;99.90;;;;;;5092856;28;20039;-66
2022/05/23 02:47:11;;;;;;;5.83;4.03;;;13.90;99.90;;;;;;5094896;28;20044;-66
2022/05/23 02:49:38;;;;;;;6.93;3.65;;;13.80;99.90;;;;;;5076114;28;20044;-66
2022/05/23 02:52:05;;;;;;;6.45;3.67;;;13.80;99.90;;;;;;5092697;28;20040;-66
2022/05/23 02:54:32;;;;;;;6.20;3.40;;;13.80;99.90;;;;;;5094774;28;20042;-66
2022/05/23 02:56:59;;;;;;;10.55;4.05;;;13.80;99.90;;;;;;5094057;28;20039;-66
2022/05/23 02:59:26;;;;;;;6.10;2.95;;;13.80;99.90;;;;;;5094854;28;20044;-66
2022/05/23 03:04:39;;;;;;;7.97;4.07;;;13.80;99.90;;;;;;5094766;28;20040;-66
2022/05/23 03:07:06;;;;;;;5.63;3.00;;;13.80;99.90;;;;;;5093723;28;20048;-66
2022/05/23 03:09:33;;;;;;;6.32;2.90;;;13.80;99.90;;;;;;5092605;28;20040;-66
2022/05/23 03:11:59;;;;;;;5.07;3.15;;;13.90;99.90;;;;;;5093712;28;20040;-66
2022/05/23 03:14:27;;;;;;;7.30;3.45;;;13.90;99.90;;;;;;5092611;28;20039;-66
2022/05/23 03:16:54;;;;;;;9.10;3.33;;;13.90;99.90;;;;;;5092727;28;20040;-66
2022/05/23 03:19:20;;;;;;;6.65;3.30;;;13.90;99.90;;;;;;5092181;28;20471;-66
2022/05/23 03:27:18;;;;;;;5.20;3.15;;;14.00;99.90;;;;;;5094198;28;20044;-66
2022/05/23 03:29:45;;;;;;;7.85;3.17;;;14.00;99.90;;;;;;5091956;28;20044;-67
2022/05/23 03:32:13;;;;;;;7.25;2.97;;;14.10;99.90;;;;;;5093560;28;20040;-66
2022/05/23 03:34:40;;;;;;;6.25;2.72;;;14.10;99.90;;;;;;5092001;28;20051;-66
2022/05/23 03:37:12;;;;;;;6.10;3.70;;;14.20;99.90;;;;;;5092183;28;20048;-66
2022/05/23 03:39:39;;;;;;;6.07;2.80;;;14.20;99.90;;;;;;5093290;28;20055;-66
2022/05/23 03:42:06;;;;;;;5.85;3.83;;;14.20;99.90;;;;;;5076045;28;20048;-66
2022/05/23 03:44:34;;;;;;;10.35;2.60;;;14.20;99.90;;;;;;5092044;28;20039;-66
2022/05/23 03:47:03;;;;;;;8.20;2.53;;;14.30;99.90;;;;;;5092262;28;20077;-69
2022/05/23 03:49:32;;;;;;;44.95;38.13;;;14.30;99.90;;;;;;5092176;28;20360;-65
2022/05/23 03:51:59;;;;;;;16.83;13.35;;;14.30;99.90;;;;;;5075907;28;20059;-67
2022/05/23 03:54:26;;;;;;;9.23;4.53;;;14.30;99.90;;;;;;5092844;28;20044;-67
2022/05/23 03:57:01;;;;;;;5.85;3.03;;;14.40;99.90;;;;;;5091882;28;20040;-67
2022/05/23 03:59:28;;;;;;;8.55;2.38;;;14.40;99.90;;;;;;5092118;28;20044;-67
2022/05/23 04:01:56;;;;;;;4.50;2.40;;;14.40;99.90;;;;;;5075547;28;20044;-67
2022/05/23 04:04:26;;;;;;;6.35;2.58;;;14.40;99.90;;;;;;5092118;28;20044;-67
2022/05/23 04:06:59;;;;;;;4.68;2.70;;;14.40;99.90;;;;;;5091775;28;20051;-67
2022/05/23 04:09:27;;;;;;;5.45;2.20;;;14.40;99.90;;;;;;5091827;28;20363;-67
2022/05/23 04:11:55;;;;;;;4.95;2.50;;;14.40;99.90;;;;;;5093289;28;20044;-66
2022/05/23 04:14:22;;;;;;;3.88;2.20;;;14.40;99.90;;;;;;5075118;28;20048;-66
2022/05/23 04:16:49;;;;;;;6.85;2.40;;;14.40;99.90;;;;;;5092027;28;20036;-66
2022/05/23 04:19:16;;;;;;;4.90;2.33;;;14.40;99.90;;;;;;5092818;28;20044;-67
2022/05/23 04:21:44;;;;;;;4.50;3.17;;;14.40;99.90;;;;;;5091969;28;20165;-67
2022/05/23 04:24:11;;;;;;;7.40;2.45;;;14.40;99.90;;;;;;5093054;28;20089;-67
2022/05/23 04:26:38;;;;;;;7.70;3.30;;;14.40;99.90;;;;;;5091905;28;20048;-67
2022/05/23 04:29:06;;;;;;;6.10;3.05;;;14.50;99.90;;;;;;5092312;28;20043;-66
2022/05/23 04:31:33;;;;;;;3.45;2.17;;;14.40;99.90;;;;;;5093072;28;20355;-67
2022/05/23 04:36:47;;;;;;;4.82;2.60;;;14.50;99.90;;;;;;5077650;28;20040;-67
2022/05/23 04:39:14;;;;;;;5.22;2.58;;;14.50;99.90;;;;;;5075125;28;20048;-67
2022/05/23 04:41:40;;;;;;;6.63;2.60;;;14.50;99.90;;;;;;5075227;28;20468;-67
2022/05/23 04:44:07;;;;;;;7.30;2.72;;;14.60;99.90;;;;;;5097259;28;20040;-67
2022/05/23 04:46:34;;;;;;;5.65;2.95;;;14.60;99.90;;;;;;5097631;28;20048;-67
2022/05/23 04:51:46;;;;;;;6.80;2.75;;;14.70;99.90;;;;;;5096116;28;20371;-67
2022/05/23 04:54:13;;;;;;;4.82;2.60;;;14.70;99.90;;;;;;5097258;28;20048;-67
2022/05/23 04:56:40;;;;;;;5.10;2.50;;;14.70;99.90;;;;;;5095261;28;20040;-67
2022/05/23 04:59:07;;;;;;;5.00;2.20;;;14.70;99.90;;;;;;5095649;28;20047;-67
2022/05/23 05:01:34;;;;;;;5.45;2.58;;;14.70;99.90;;;;;;5095037;28;20489;-67
2022/05/23 05:04:01;;;;;;;6.82;2.63;;;14.80;99.90;;;;;;5096268;28;20047;-67
2022/05/23 05:06:28;;;;;;;4.88;2.50;;;14.70;99.90;;;;;;5095076;28;20048;-67
2022/05/23 05:08:55;;;;;;;5.93;2.30;;;14.70;99.90;;;;;;5096888;28;20040;-67
2022/05/23 05:11:22;;;;;;;3.65;2.15;;;14.80;99.90;;;;;;5096197;28;20096;-67
2022/05/23 05:13:48;;;;;;;4.07;2.15;;;14.80;99.90;;;;;;5096175;28;20040;-67
2022/05/23 05:16:19;;;;;;;5.60;2.78;;;14.90;99.90;;;;;;5095703;28;20048;-67
2022/05/23 05:18:46;;;;;;;6.65;2.50;;;14.90;99.90;;;;;;5094594;28;20097;-67
2022/05/23 05:21:13;;;;;;;4.30;2.20;;;15.00;99.90;;;;;;5096715;28;20054;-67
2022/05/23 05:23:40;;;;;;;5.68;2.08;;;15.00;99.90;;;;;;5095600;28;20036;-68
2022/05/23 05:26:07;;;;;;;5.85;2.70;;;15.10;99.90;;;;;;5095786;28;20092;-68
2022/05/23 05:28:34;;;;;;;5.15;2.08;;;15.20;99.90;;;;;;5095691;28;20050;-68
2022/05/23 05:31:14;;;;;;;3.78;2.20;;;15.20;99.90;;;;;;5094413;28;20055;-68
2022/05/23 05:33:46;;;;;;;4.93;2.90;;;15.30;99.90;;;;;;5094291;28;20128;-67
2022/05/23 05:36:16;;;;;;;5.47;2.05;;;15.30;99.90;;;;;;5094102;28;20043;-67
2022/05/23 05:38:52;;;;;;;6.93;3.22;;;15.40;99.90;;;;;;5094402;28;20059;-67
2022/05/23 05:41:25;;;;;;;6.13;2.22;;;15.50;99.90;;;;;;5094624;28;20506;-67
2022/05/23 05:43:56;;;;;;;4.60;2.30;;;15.50;99.90;;;;;;5078033;28;20040;-68
2022/05/23 05:46:28;;;;;;;4.82;1.98;;;15.50;99.90;;;;;;5061114;28;20462;-66
2022/05/23 05:48:55;;;;;;;4.53;2.40;;;15.50;99.90;;;;;;5093956;28;20135;-66
2022/05/23 05:51:22;;;;;;;4.65;2.13;;;15.50;99.90;;;;;;5078152;28;20050;-66
2022/05/23 05:53:49;;;;;;;3.75;2.17;;;15.50;99.90;;;;;;5094616;28;20063;-66
2022/05/23 05:56:16;;;;;;;5.47;2.22;;;15.50;99.90;;;;;;5078083;28;20452;-65
2022/05/23 05:58:44;;;;;;;22.52;18.08;;;15.60;99.90;;;;;;5077287;28;20463;-68
2022/05/23 06:01:11;;;;;;;9.57;4.78;;;15.60;99.90;;;;;;5094724;28;20419;-66
2022/05/23 06:03:40;;;;;;;7.28;3.17;;;15.60;99.90;;;;;;5094922;28;20080;-71
2022/05/23 06:11:37;;;;;;;6.00;3.05;;;15.50;99.90;;;;;;5094558;28;20048;-69
2022/05/23 06:14:04;;;;;;;5.00;2.03;;;15.50;99.90;;;;;;5094639;28;20040;-69
2022/05/23 06:16:33;;;;;;;5.65;2.10;;;15.50;99.90;;;;;;5093401;28;20048;-67
2022/05/23 06:19:00;;;;;;;5.85;2.30;;;15.50;99.90;;;;;;5077008;28;20086;-69
2022/05/23 06:21:28;;;;;;;4.65;2.50;;;15.50;99.90;;;;;;5094510;28;20050;-69
2022/05/23 06:23:55;;;;;;;5.95;2.63;;;15.50;99.90;;;;;;5076822;28;20131;-70
2022/05/23 06:26:27;;;;;;;9.32;5.22;;;15.50;99.90;;;;;;5078588;28;20052;-72
2022/05/23 06:28:54;;;;;;;87.75;69.13;;;15.60;99.90;;;;;;5094493;28;20047;-72
2022/05/23 06:31:22;;;;;;;18.35;12.15;;;15.50;99.90;;;;;;5094317;28;20408;-72
2022/05/23 06:33:49;;;;;;;11.32;5.18;;;15.60;99.90;;;;;;5094854;28;20047;-72
2022/05/23 06:36:16;;;;;;;5.80;2.35;;;15.60;99.90;;;;;;5094161;28;20052;-72
2022/05/23 06:38:43;;;;;;;5.00;2.45;;;15.60;99.90;;;;;;5059835;28;20567;-72
2022/05/23 06:41:11;;;;;;;5.05;1.98;;;15.60;99.90;;;;;;5092987;28;20090;-72
2022/05/23 06:43:38;;;;;;;3.78;2.10;;;15.70;99.90;;;;;;5093432;28;20375;-72
2022/05/23 06:46:06;;;;;;;4.03;2.85;;;15.70;99.90;;;;;;5076176;28;20123;-72
2022/05/23 06:48:34;;;;;;;6.43;2.42;;;15.70;99.90;;;;;;5076029;28;20475;-72
2022/05/23 06:51:00;;;;;;;5.53;2.20;;;15.80;99.90;;;;;;5092607;28;20044;-72
2022/05/23 06:53:29;;;;;;;6.32;3.00;;;15.90;99.90;;;;;;5094197;28;20040;-72
2022/05/23 06:55:56;;;;;;;5.45;2.28;;;16.00;99.90;;;;;;5094193;28;20043;-73
2022/05/23 06:58:23;;;;;;;5.05;3.28;;;16.00;99.90;;;;;;5093012;28;20051;-75
2022/05/23 07:00:50;;;;;;;4.50;2.50;;;16.10;99.90;;;;;;5093375;28;20040;-75
2022/05/23 07:03:17;;;;;;;5.07;3.03;;;16.10;99.90;;;;;;5094383;28;20044;-74
2022/05/23 07:14:01;;;;;;;5.20;2.42;;;16.20;99.90;;;;;;5093674;28;20051;-75
2022/05/23 07:16:30;;;;;;;4.50;2.90;;;16.20;99.90;;;;;;5093560;28;20048;-73
2022/05/23 07:18:57;;;;;;;8.73;3.83;;;16.30;99.90;;;;;;5092687;28;20114;-75
2022/05/23 07:21:24;;;;;;;4.55;2.72;;;16.40;99.90;;;;;;5092456;28;20040;-72
2022/05/23 07:23:51;;;;;;;4.95;2.50;;;16.50;99.90;;;;;;5059208;28;20044;-73
2022/05/23 07:26:19;;;;;;;4.75;2.58;;;16.60;99.90;;;;;;5093088;28;20051;-75
2022/05/23 07:28:49;;;;;;;5.55;2.88;;;16.70;99.90;;;;;;5092359;28;20372;-73
2022/05/23 07:31:17;;;;;;;6.43;3.20;;;16.70;99.90;;;;;;5092301;28;20479;-76
2022/05/23 07:33:44;;;;;;;5.97;3.38;;;16.80;99.90;;;;;;5075534;28;20471;-82
2022/05/23 07:36:11;;;;;;;5.03;3.25;;;16.70;99.90;;;;;;5076004;28;20483;-79
2022/05/23 07:38:39;;;;;;;6.65;3.47;;;16.80;99.90;;;;;;5076438;28;20363;-75
2022/05/23 07:41:07;;;;;;;5.28;3.38;;;16.80;99.90;;;;;;5093659;28;20474;-74
2022/05/23 07:43:35;;;;;;;5.80;2.85;;;16.90;99.90;;;;;;5075804;28;20439;-72
2022/05/23 07:46:12;;;;;;;21.17;13.73;;;16.90;99.90;;;;;;5093318;28;20526;-77
2022/05/23 07:48:45;;;;;;;51.78;41.65;;;16.90;99.90;;;;;;5094097;28;20513;-76
2022/05/23 07:51:13;;;;;;;12.48;7.50;;;17.00;99.90;;;;;;5076426;28;20050;-76
2022/05/23 08:01:56;;;;;;;6.88;4.25;;;17.20;99.90;;;;;;5078370;28;20048;-65
2022/05/23 08:04:24;;;;;;;8.65;3.08;;;17.30;99.90;;;;;;5091912;28;20047;-66
2022/05/23 08:06:52;;;;;;;7.57;3.25;;;17.30;99.90;;;;;;5093608;28;20078;-67
2022/05/23 08:09:20;;;;;;;6.75;3.33;;;17.40;99.90;;;;;;5091731;28;20480;-68
2022/05/23 08:11:49;;;;;;;5.95;3.40;;;17.40;99.90;;;;;;5075400;28;20046;-67
2022/05/23 08:14:16;;;;;;;4.47;3.38;;;17.50;99.90;;;;;;5058635;28;20051;-67
2022/05/23 08:16:43;;;;;;;5.85;4.15;;;17.50;99.90;;;;;;5093259;28;20047;-67
2022/05/23 08:19:10;;;;;;;7.97;4.10;;;17.50;99.90;;;;;;5078937;28;20056;-67
2022/05/23 08:21:50;;;;;;;7.93;4.30;;;17.50;99.90;;;;;;5097865;28;20044;-69
2022/05/23 08:24:17;;;;;;;7.18;3.95;;;17.60;99.90;;;;;;5080583;28;20050;-67
2022/05/23 08:26:44;;;;;;;5.90;4.05;;;17.60;99.90;;;;;;5097141;28;20043;-67
2022/05/23 08:29:11;;;;;;;22.45;18.23;;;17.70;99.90;;;;;;5079453;28;20040;-68
2022/05/23 08:31:44;;;;;;;7.15;4.55;;;17.80;99.90;;;;;;5096505;28;20097;-68
2022/05/23 08:34:11;;;;;;;9.23;4.85;;;17.80;99.90;;;;;;5078887;28;20130;-78
2022/05/23 08:36:39;;;;;;;7.18;4.47;;;17.70;99.90;;;;;;5079100;28;20040;-78
2022/05/23 08:39:06;;;;;;;8.38;4.32;;;17.80;99.90;;;;;;5096389;28;20047;-78
2022/05/23 08:41:40;;;;;;;8.10;3.85;;;17.90;99.90;;;;;;5095475;28;20082;-79
2022/05/23 08:44:29;;;;;;;6.35;3.55;;;18.10;99.90;;;;;;5063099;28;20092;-79
2022/05/23 08:47:13;;;;;;;8.60;4.05;;;18.20;99.90;;;;;;5096167;28;20066;-78
2022/05/23 08:49:46;;;;;;;7.78;4.05;;;18.20;99.90;;;;;;5095222;28;20478;-80
2022/05/23 08:52:20;;;;;;;7.82;4.63;;;18.20;99.90;;;;;;5096885;28;20131;-79
2022/05/23 08:54:48;;;;;;;6.80;4.55;;;18.30;99.90;;;;;;5095111;28;20044;-79
2022/05/23 08:57:25;;;;;;;7.82;4.63;;;18.40;99.90;;;;;;5095476;28;20397;-78
2022/05/23 08:59:54;;;;;;;7.95;4.45;;;18.60;99.90;;;;;;5079515;28;20059;-78
2022/05/23 09:02:38;;;;;;;10.18;5.57;;;18.80;99.90;;;;;;5079590;28;20127;-78
2022/05/23 09:05:20;;;;;;;10.35;4.53;;;18.80;99.90;;;;;;5095943;28;20044;-78
2022/05/23 09:08:08;;;;;;;11.13;5.03;;;19.00;99.90;;;;;;5082244;28;20044;-78
2022/05/23 09:10:54;;;;;;;17.63;5.30;;;19.10;99.90;;;;;;5061720;28;20048;-78
2022/05/23 09:13:27;;;;;;;8.45;5.43;;;19.30;99.90;;;;;;5095955;28;20044;-78
2022/05/23 09:16:04;;;;;;;8.27;4.90;;;19.50;99.90;;;;;;5062126;28;20044;-78
2022/05/23 09:18:51;;;;;;;9.60;5.85;;;19.70;99.90;;;;;;5079613;28;20046;-80
2022/05/23 09:21:18;;;;;;;10.48;5.32;;;19.70;99.90;;;;;;5079415;28;20044;-70
2022/05/23 09:23:47;;;;;;;48.35;43.15;;;19.80;99.90;;;;;;5096259;28;20051;-85
2022/05/23 09:26:24;;;;;;;16.02;13.80;;;20.00;99.90;;;;;;5095196;28;20054;-81
2022/05/23 09:28:51;;;;;;;12.80;8.15;;;20.30;99.90;;;;;;5078099;28;20463;-80
2022/05/23 09:31:30;;;;;;;7.00;5.32;;;20.30;99.90;;;;;;5094408;28;20036;-81
2022/05/23 09:33:57;;;;;;;;;;;20.30;99.90;;;;;;5097518;28;20371;-81
2022/05/23 09:36:44;;;;;;;6.88;4.93;;;20.30;99.90;;;;;;5094802;28;19916;-81
2022/05/23 09:39:11;;;;;;;7.88;4.82;;;20.40;99.90;;;;;;5080206;28;20433;-81
2022/05/23 09:47:47;;;;;;;6.68;4.28;;;20.50;99.90;;;;;;5096325;28;20075;-81
2022/05/23 09:50:39;;;;;;;7.47;4.35;;;20.50;99.90;;;;;;5096273;28;20048;-81
2022/05/23 09:53:18;;;;;;;5.97;3.80;;;20.70;99.50;;;;;;5092494;28;20067;-81
2022/05/23 09:55:45;;;;;;;6.68;4.10;;;20.80;97.50;;;;;;5093996;28;20075;-80
2022/05/23 09:58:25;;;;;;;5.53;4.00;;;20.70;97.30;;;;;;5094386;28;20048;-81
2022/05/23 10:01:04;;;;;;;8.40;4.15;;;20.60;97.40;;;;;;5078816;28;20135;-81
2022/05/23 10:03:32;;;;;;;5.00;3.47;;;20.70;98.90;;;;;;5094550;28;20127;-81
2022/05/23 10:06:08;;;;;;;8.15;4.50;;;20.70;99.10;;;;;;5094062;28;20036;-81
2022/05/23 10:08:39;;;;;;;5.95;4.30;;;20.70;98.50;;;;;;5094481;28;20071;-82
2022/05/23 10:11:19;;;;;;;8.98;4.35;;;20.50;98.50;;;;;;5094727;28;20066;-81
2022/05/23 10:13:54;;;;;;;6.47;3.83;;;20.50;99.90;;;;;;5093915;28;20040;-80
2022/05/23 10:16:26;;;;;;;8.38;3.92;;;20.40;98.60;;;;;;5077430;28;20051;-80
2022/05/23 10:19:01;;;;;;;7.03;4.30;;;20.50;99.60;;;;;;5093402;28;20055;-81
2022/05/23 10:21:32;;;;;;;6.78;4.22;;;20.60;99.90;;;;;;5093579;28;20399;-80
2022/05/23 10:24:05;;;;;;;8.43;3.97;;;20.40;96.10;;;;;;5095079;28;20044;-79
2022/05/23 10:26:53;;;;;;;7.50;3.33;;;20.20;96.80;;;;;;5093943;28;20455;-80
2022/05/23 10:29:32;;;;;;;6.35;3.92;;;20.10;99.00;;;;;;5091105;28;20452;-80
2022/05/23 10:32:07;;;;;;;5.32;3.40;;;20.00;99.10;;;;;;5094432;28;20039;-80
2022/05/23 10:34:43;;;;;;;5.18;3.33;;;20.00;99.90;;;;;;5076568;28;20052;-80
2022/05/23 10:37:18;;;;;;;4.75;3.58;;;20.00;99.90;;;;;;5076469;28;20055;-79
2022/05/23 10:43:07;;;;;;;4.72;3.00;;;20.00;99.60;;;;;;5079154;28;20044;-79
2022/05/23 10:45:39;;;;;;;4.70;3.50;;;19.90;99.90;;;;;;5078825;28;20126;-79
2022/05/23 10:48:10;;;;;;;5.32;3.35;;;19.80;99.90;;;;;;5095083;28;20547;-80
2022/05/23 10:50:53;;;;;;;9.38;3.90;;;19.80;99.70;;;;;;5093913;28;20040;-79
2022/05/23 10:53:38;;;;;;;5.53;3.33;;;19.60;99.90;;;;;;5078393;28;20036;-78
2022/05/23 10:56:20;;;;;;;5.63;3.40;;;19.60;99.90;;;;;;5094184;28;20475;-78
2022/05/23 10:58:54;;;;;;;7.70;3.03;;;19.40;99.90;;;;;;5093289;28;20070;-77
2022/05/23 11:01:36;;;;;;;4.85;3.55;;;19.40;99.90;;;;;;5093601;28;20047;-72
2022/05/23 11:04:24;;;;;;;7.95;3.92;;;19.30;99.90;;;;;;5094726;28;20040;-73
2022/05/23 11:07:13;;;;;;;4.75;3.35;;;19.20;99.90;;;;;;5093875;28;20036;-70
2022/05/23 11:09:49;;;;;;;54.73;42.43;;;19.20;99.90;;;;;;5094114;28;20114;-75
2022/05/23 11:12:23;;;;;;;12.70;9.85;;;19.10;99.90;;;;;;5093933;28;20043;-77
2022/05/23 11:15:08;;;;;;;8.63;5.22;;;19.00;99.90;;;;;;5092482;28;20039;-78
2022/05/23 11:17:43;;;;;;;6.07;4.10;;;18.90;99.90;;;;;;5078079;28;20048;-76
2022/05/23 11:20:24;;;;;;;5.82;3.83;;;18.80;99.90;;;;;;5093661;28;20136;-75
2022/05/23 11:23:36;;;;;;;7.47;3.65;;;18.50;99.90;;;;;;5061319;28;20075;-79
2022/05/23 11:26:43;;;;;;;8.98;4.47;;;18.10;99.90;;;;;;5094550;28;20046;-70
2022/05/23 11:34:58;;;;;;;11.38;4.45;;;17.70;99.90;;;;;;5092521;28;20058;-69
2022/05/23 11:40:06;;;;;;;7.55;4.10;;;17.50;99.90;;;;;;5092442;28;19969;-68
2022/05/23 11:42:52;;;;;;;10.85;5.18;;;17.50;99.90;;;;;;5093748;28;20044;-67
2022/05/23 11:48:35;;;;;;;14.70;8.82;;;17.50;99.90;;;;;;5094280;28;20448;-68
2022/05/23 11:51:20;;;;;;;15.57;9.88;;;17.60;99.90;;;;;;5094089;28;20036;-67
2022/05/23 11:53:56;;;;;;;15.43;10.65;;;17.70;99.90;;;;;;5097660;28;20040;-70
2022/05/23 11:56:55;;;;;;;11.77;7.38;;;17.70;99.90;;;;;;5096935;28;20135;-70
2022/05/23 11:59:25;;;;;;;9.02;6.05;;;17.80;99.90;;;;;;5096337;28;20392;-70
2022/05/23 12:02:07;;;;;;;7.93;5.32;;;17.90;99.90;;;;;;5097253;28;20510;-71
2022/05/23 12:04:39;;;;;;;9.13;6.35;;;18.00;99.90;;;;;;5097185;28;20124;-71
2022/05/23 12:07:06;;;;;;;11.27;7.60;;;18.10;99.90;;;;;;5080543;28;20047;-71
2022/05/23 12:09:35;;;;;;;10.23;7.35;;;18.10;99.90;;;;;;5097136;28;20055;-71
2022/05/23 12:12:21;;;;;;;7.20;5.25;;;18.10;99.90;;;;;;5079488;28;20040;-71
2022/05/23 12:14:48;;;;;;;9.57;4.93;;;18.10;99.90;;;;;;5096100;28;20048;-72
2022/05/23 12:17:23;;;;;;;9.75;5.15;;;18.10;99.90;;;;;;5097198;28;20048;-73
2022/05/23 12:19:57;;;;;;;7.93;4.68;;;18.00;99.90;;;;;;5096903;28;20046;-74
2022/05/23 12:22:36;;;;;;;10.25;5.07;;;17.90;99.90;;;;;;5096833;28;20056;-74
2022/05/23 12:25:09;;;;;;;;;;;17.60;99.90;;;;;;5079462;28;20044;-74
2022/05/23 12:27:38;;;;;;;7.70;4.55;;;17.40;99.90;;;;;;5097038;28;19916;-74
2022/05/23 12:30:17;;;;;;;7.65;4.82;;;17.30;99.90;;;;;;5062666;28;20054;-73
2022/05/23 12:32:50;;;;;;;7.57;4.50;;;17.20;99.90;;;;;;5097483;28;20353;-73
2022/05/23 12:35:19;;;;;;;10.85;5.78;;;17.10;99.90;;;;;;5078670;28;20048;-73
2022/05/23 12:38:08;;;;;;;8.25;5.38;;;17.10;99.90;;;;;;5095599;28;20157;-73
2022/05/23 12:40:47;;;;;;;8.20;4.90;;;17.10;99.90;;;;;;5095383;28;20060;-73
2022/05/23 12:43:42;;;;;;;11.18;5.47;;;17.00;99.90;;;;;;5095850;28;20059;-73
2022/05/23 12:46:27;;;;;;;9.30;5.35;;;17.00;99.90;;;;;;5097575;28;20404;-73
2022/05/23 12:49:09;;;;;;;8.77;4.60;;;17.00;99.90;;;;;;5096620;28;20052;-73
2022/05/23 12:51:57;;;;;;;9.15;5.53;;;17.00;99.90;;;;;;5096564;28;20479;-73
2022/05/23 12:54:54;;;;;;;7.10;5.05;;;17.00;99.90;;;;;;5095207;28;20040;-86
2022/05/23 12:57:39;;;;;;;13.63;8.55;;;16.90;99.90;;;;;;5095913;28;20345;-68
2022/05/23 13:00:15;;;;;;;18.45;9.15;;;16.90;99.90;;;;;;5097184;28;20375;-69
2022/05/23 13:02:55;;;;;;;55.22;45.35;;;16.90;99.90;;;;;;5095403;28;20471;-69
2022/05/23 13:05:38;;;;;;;20.80;13.95;;;16.90;99.90;;;;;;5097080;28;20066;-69
2022/05/23 13:08:27;;;;;;;18.15;10.90;;;16.80;99.90;;;;;;5063677;28;20048;-67
2022/05/23 13:11:01;;;;;;;15.65;8.07;;;16.80;99.90;;;;;;5078248;28;20521;-67
2022/05/23 13:13:41;;;;;;;20.67;10.35;;;16.60;99.90;;;;;;5095288;28;20434;-68
2022/05/23 13:16:17;;;;;;;14.38;8.88;;;16.50;99.90;;;;;;5095456;28;20122;-71
2022/05/23 13:27:09;;;;;;;16.75;10.90;;;16.10;99.90;;;;;;5095916;28;20044;-76
2022/05/23 13:29:36;;;;;;;8.88;5.35;;;15.90;99.90;;;;;;5094295;28;20050;-72
2022/05/23 13:32:07;;;;;;;10.32;5.25;;;15.90;99.90;;;;;;5095008;28;20122;-73
2022/05/23 13:34:35;;;;;;;8.73;4.20;;;15.70;99.90;;;;;;5095958;28;20044;-72
2022/05/23 13:37:02;;;;;;;13.13;6.10;;;15.70;99.90;;;;;;5095397;28;20040;-73
2022/05/23 13:39:29;;;;;;;13.00;6.63;;;15.70;99.90;;;;;;5095973;28;20044;-73
2022/05/23 13:41:56;;;;;;;9.80;5.57;;;15.80;99.90;;;;;;5094836;28;20456;-75
2022/05/23 13:44:28;;;;;;;9.18;4.30;;;15.70;99.90;;;;;;5095284;28;20051;-76
2022/05/23 13:47:00;;;;;;;10.05;5.95;;;15.70;99.90;;;;;;5077948;28;20040;-74
2022/05/23 13:49:46;;;;;;;8.32;4.25;;;15.70;99.90;;;;;;5078040;28;20044;-74
2022/05/23 13:52:19;;;;;;;7.68;4.55;;;15.90;99.90;;;;;;5079203;28;20055;-74
2022/05/23 13:54:50;;;;;;;8.60;4.13;;;16.00;99.90;;;;;;5077449;28;20495;-76
2022/05/23 13:57:33;;;;;;;7.80;3.83;;;16.10;99.90;;;;;;5076955;28;20048;-78
2022/05/23 14:00:05;;;;;;;8.40;4.20;;;16.20;99.90;;;;;;5077864;28;20379;-73
2022/05/23 14:02:35;;;;;;;8.48;4.63;;;16.10;99.90;;;;;;5078470;28;20127;-70
2022/05/23 14:05:02;;;;;;;;;;;16.20;99.90;;;;;;5094402;28;20044;-68
2022/05/23 14:07:30;;;;;;;199.10;177.43;;;16.20;99.90;;;;;;5093835;28;19916;-62
2022/05/23 14:10:06;;;;;;;35.72;31.88;;;16.20;99.90;;;;;;5078758;28;20050;-68
2022/05/23 14:12:34;;;;;;;17.70;13.82;;;16.30;99.90;;;;;;5060335;28;20123;-67
2022/05/23 14:15:10;;;;;;;11.88;7.70;;;16.40;99.90;;;;;;5077142;28;20051;-67
2022/05/23 14:17:44;;;;;;;10.85;5.72;;;16.50;99.90;;;;;;5077998;28;20040;-69